sensor_id;sensor_type;location;lat;lon;timestamp;pressure;altitude;pressure_sealevel;temperature;humidity
70200;BME280;57587;55.688;37.600;2024-01-06T00:00:50;99057.16;;;-16.06;53.42
70200;BME280;57587;55.688;37.600;2024-01-06T00:03:17;99050.00;;;-15.92;53.87
70200;BME280;57587;55.688;37.600;2024-01-06T00:05:45;99050.47;;;-15.73;52.94
70200;BME280;57587;55.688;37.600;2024-01-06T00:08:12;99056.34;;;-15.68;53.37
70200;BME280;57587;55.688;37.600;2024-01-06T00:10:39;99056.00;;;-15.54;53.66
70200;BME280;57587;55.688;37.600;2024-01-06T00:13:06;99050.66;;;-15.45;52.63
70200;BME280;57587;55.688;37.600;2024-01-06T00:15:33;99046.41;;;-15.46;52.51
70200;BME280;57587;55.688;37.600;2024-01-06T00:18:00;99039.75;;;-15.54;52.96
70200;BME280;57587;55.688;37.600;2024-01-06T00:20:27;99027.78;;;-15.54;53.22
70200;BME280;57587;55.688;37.600;2024-01-06T00:22:54;99028.28;;;-15.40;53.11
70200;BME280;57587;55.688;37.600;2024-01-06T00:25:23;99026.47;;;-15.35;52.03
70200;BME280;57587;55.688;37.600;2024-01-06T00:27:50;99035.28;;;-15.45;53.24
70200;BME280;57587;55.688;37.600;2024-01-06T00:30:17;99038.97;;;-15.58;52.62
70200;BME280;57587;55.688;37.600;2024-01-06T00:32:45;99040.06;;;-15.67;53.61
70200;BME280;57587;55.688;37.600;2024-01-06T00:35:12;99041.59;;;-15.60;53.30
70200;BME280;57587;55.688;37.600;2024-01-06T00:37:39;99040.63;;;-15.54;53.78
70200;BME280;57587;55.688;37.600;2024-01-06T00:40:06;99037.03;;;-15.47;53.13
70200;BME280;57587;55.688;37.600;2024-01-06T00:42:34;99032.81;;;-15.49;54.10
70200;BME280;57587;55.688;37.600;2024-01-06T00:45:01;99029.06;;;-15.36;53.63
70200;BME280;57587;55.688;37.600;2024-01-06T00:47:29;99040.88;;;-15.29;54.20
70200;BME280;57587;55.688;37.600;2024-01-06T00:49:56;99035.06;;;-15.36;53.89
70200;BME280;57587;55.688;37.600;2024-01-06T00:52:23;99035.84;;;-15.34;53.93
70200;BME280;57587;55.688;37.600;2024-01-06T00:54:50;99035.06;;;-15.36;53.18
70200;BME280;57587;55.688;37.600;2024-01-06T00:57:17;99042.25;;;-15.51;54.30
70200;BME280;57587;55.688;37.600;2024-01-06T00:59:50;99049.78;;;-15.44;52.79
70200;BME280;57587;55.688;37.600;2024-01-06T01:02:18;99055.88;;;-15.48;52.65
70200;BME280;57587;55.688;37.600;2024-01-06T01:04:45;99049.09;;;-15.52;53.44
70200;BME280;57587;55.688;37.600;2024-01-06T01:07:12;99045.75;;;-15.54;53.72
70200;BME280;57587;55.688;37.600;2024-01-06T01:09:39;99048.38;;;-15.57;53.17
70200;BME280;57587;55.688;37.600;2024-01-06T01:12:07;99042.44;;;-15.59;53.56
70200;BME280;57587;55.688;37.600;2024-01-06T01:14:34;99051.94;;;-15.64;53.47
70200;BME280;57587;55.688;37.600;2024-01-06T01:17:01;99055.22;;;-15.58;53.08
70200;BME280;57587;55.688;37.600;2024-01-06T01:19:28;99057.97;;;-15.28;52.98
70200;BME280;57587;55.688;37.600;2024-01-06T01:21:56;99049.50;;;-15.33;52.48
70200;BME280;57587;55.688;37.600;2024-01-06T01:24:23;99053.66;;;-15.27;51.79
70200;BME280;57587;55.688;37.600;2024-01-06T01:26:50;99049.78;;;-15.08;52.79
70200;BME280;57587;55.688;37.600;2024-01-06T01:29:17;99050.44;;;-15.00;51.74
70200;BME280;57587;55.688;37.600;2024-01-06T01:31:47;99046.56;;;-15.16;51.73
70200;BME280;57587;55.688;37.600;2024-01-06T01:34:14;99049.91;;;-15.14;51.69
70200;BME280;57587;55.688;37.600;2024-01-06T01:36:41;99051.19;;;-14.95;51.37
70200;BME280;57587;55.688;37.600;2024-01-06T01:39:09;99052.94;;;-14.97;51.46
70200;BME280;57587;55.688;37.600;2024-01-06T01:41:36;99049.78;;;-14.74;51.68
70200;BME280;57587;55.688;37.600;2024-01-06T01:44:04;99053.81;;;-14.65;50.72
70200;BME280;57587;55.688;37.600;2024-01-06T01:46:31;99044.97;;;-14.53;50.68
70200;BME280;57587;55.688;37.600;2024-01-06T01:49:00;99032.34;;;-14.61;50.68
70200;BME280;57587;55.688;37.600;2024-01-06T01:51:30;99031.53;;;-14.63;51.46
70200;BME280;57587;55.688;37.600;2024-01-06T01:53:58;99035.75;;;-14.62;51.43
70200;BME280;57587;55.688;37.600;2024-01-06T01:56:26;99037.41;;;-14.59;51.13
70200;BME280;57587;55.688;37.600;2024-01-06T01:58:54;99022.00;;;-14.59;51.78
70200;BME280;57587;55.688;37.600;2024-01-06T02:01:21;99022.41;;;-14.44;51.66
70200;BME280;57587;55.688;37.600;2024-01-06T02:03:48;99019.31;;;-14.55;51.35
70200;BME280;57587;55.688;37.600;2024-01-06T02:06:15;99016.03;;;-14.60;51.09
70200;BME280;57587;55.688;37.600;2024-01-06T02:08:42;99021.16;;;-14.60;51.43
70200;BME280;57587;55.688;37.600;2024-01-06T02:11:10;99018.88;;;-14.39;51.31
70200;BME280;57587;55.688;37.600;2024-01-06T02:13:37;99021.53;;;-14.13;51.33
70200;BME280;57587;55.688;37.600;2024-01-06T02:16:05;99033.31;;;-14.06;50.61
70200;BME280;57587;55.688;37.600;2024-01-06T02:18:32;99028.47;;;-14.15;51.04
70200;BME280;57587;55.688;37.600;2024-01-06T02:21:02;99028.00;;;-14.00;50.69
70200;BME280;57587;55.688;37.600;2024-01-06T02:23:29;99032.09;;;-13.92;51.08
70200;BME280;57587;55.688;37.600;2024-01-06T02:25:57;99037.34;;;-13.96;50.45
70200;BME280;57587;55.688;37.600;2024-01-06T02:28:24;99052.38;;;-14.11;51.08
70200;BME280;57587;55.688;37.600;2024-01-06T02:30:51;99049.53;;;-14.02;50.71
70200;BME280;57587;55.688;37.600;2024-01-06T02:33:18;99039.19;;;-14.01;50.42
70200;BME280;57587;55.688;37.600;2024-01-06T02:35:46;99039.34;;;-14.05;50.44
70200;BME280;57587;55.688;37.600;2024-01-06T02:38:13;99037.34;;;-13.96;51.41
70200;BME280;57587;55.688;37.600;2024-01-06T02:40:40;99045.66;;;-13.87;49.77
70200;BME280;57587;55.688;37.600;2024-01-06T02:43:09;99036.09;;;-13.82;50.61
70200;BME280;57587;55.688;37.600;2024-01-06T02:45:37;99043.59;;;-13.75;49.65
70200;BME280;57587;55.688;37.600;2024-01-06T02:48:04;99041.22;;;-13.82;49.50
70200;BME280;57587;55.688;37.600;2024-01-06T02:50:31;99048.41;;;-13.94;49.46
70200;BME280;57587;55.688;37.600;2024-01-06T02:52:59;99044.16;;;-13.95;49.68
70200;BME280;57587;55.688;37.600;2024-01-06T02:55:26;99042.31;;;-13.89;50.40
70200;BME280;57587;55.688;37.600;2024-01-06T02:57:53;99042.06;;;-13.82;49.85
70200;BME280;57587;55.688;37.600;2024-01-06T03:00:20;99040.31;;;-13.81;49.94
70200;BME280;57587;55.688;37.600;2024-01-06T03:02:47;99029.09;;;-13.77;49.70
70200;BME280;57587;55.688;37.600;2024-01-06T03:05:15;99029.81;;;-13.74;49.42
70200;BME280;57587;55.688;37.600;2024-01-06T03:07:42;99030.66;;;-13.73;49.57
70200;BME280;57587;55.688;37.600;2024-01-06T03:10:09;99032.31;;;-13.71;49.36
70200;BME280;57587;55.688;37.600;2024-01-06T03:12:36;99025.59;;;-13.75;49.06
70200;BME280;57587;55.688;37.600;2024-01-06T03:15:03;99026.41;;;-13.74;49.17
70200;BME280;57587;55.688;37.600;2024-01-06T03:17:31;99015.75;;;-13.90;49.62
70200;BME280;57587;55.688;37.600;2024-01-06T03:19:58;99022.22;;;-13.78;49.45
70200;BME280;57587;55.688;37.600;2024-01-06T03:22:25;99030.31;;;-13.90;49.42
70200;BME280;57587;55.688;37.600;2024-01-06T03:24:52;99028.63;;;-13.91;49.69
70200;BME280;57587;55.688;37.600;2024-01-06T03:27:19;99019.53;;;-14.03;50.16
70200;BME280;57587;55.688;37.600;2024-01-06T03:29:46;99017.44;;;-13.90;49.60
70200;BME280;57587;55.688;37.600;2024-01-06T03:32:13;99018.97;;;-13.83;50.20
70200;BME280;57587;55.688;37.600;2024-01-06T03:34:41;99028.59;;;-13.90;48.81
70200;BME280;57587;55.688;37.600;2024-01-06T03:37:08;99025.97;;;-13.88;49.23
70200;BME280;57587;55.688;37.600;2024-01-06T03:39:35;99036.44;;;-13.95;49.33
70200;BME280;57587;55.688;37.600;2024-01-06T03:42:02;99035.50;;;-13.92;49.98
70200;BME280;57587;55.688;37.600;2024-01-06T03:44:30;99039.72;;;-13.89;49.28
70200;BME280;57587;55.688;37.600;2024-01-06T03:47:00;99034.41;;;-13.83;50.17
70200;BME280;57587;55.688;37.600;2024-01-06T03:49:27;99037.00;;;-13.85;49.17
70200;BME280;57587;55.688;37.600;2024-01-06T03:51:55;99045.81;;;-13.92;49.88
70200;BME280;57587;55.688;37.600;2024-01-06T03:54:22;99042.56;;;-13.99;49.56
70200;BME280;57587;55.688;37.600;2024-01-06T03:56:49;99036.03;;;-14.10;50.01
70200;BME280;57587;55.688;37.600;2024-01-06T03:59:16;99028.34;;;-14.10;50.01
70200;BME280;57587;55.688;37.600;2024-01-06T04:01:44;99036.88;;;-14.10;50.09
70200;BME280;57587;55.688;37.600;2024-01-06T04:04:11;99035.69;;;-13.98;50.11
70200;BME280;57587;55.688;37.600;2024-01-06T04:06:38;99039.81;;;-13.92;49.81
70200;BME280;57587;55.688;37.600;2024-01-06T04:09:05;99037.91;;;-13.86;50.10
70200;BME280;57587;55.688;37.600;2024-01-06T04:11:33;99042.25;;;-13.88;49.94
70200;BME280;57587;55.688;37.600;2024-01-06T04:14:00;99039.47;;;-13.80;49.90
70200;BME280;57587;55.688;37.600;2024-01-06T04:16:27;99038.75;;;-13.85;49.24
70200;BME280;57587;55.688;37.600;2024-01-06T04:18:54;99041.59;;;-13.95;49.73
70200;BME280;57587;55.688;37.600;2024-01-06T04:21:22;99038.53;;;-13.78;50.02
70200;BME280;57587;55.688;37.600;2024-01-06T04:23:49;99046.44;;;-13.56;49.97
70200;BME280;57587;55.688;37.600;2024-01-06T04:26:16;99047.31;;;-13.57;49.73
70200;BME280;57587;55.688;37.600;2024-01-06T04:28:44;99053.38;;;-13.59;49.87
70200;BME280;57587;55.688;37.600;2024-01-06T04:31:11;99047.03;;;-13.48;50.46
70200;BME280;57587;55.688;37.600;2024-01-06T04:33:38;99048.00;;;-13.80;49.20
70200;BME280;57587;55.688;37.600;2024-01-06T04:36:07;99040.94;;;-13.73;49.67
70200;BME280;57587;55.688;37.600;2024-01-06T04:38:35;99041.94;;;-13.77;50.08
70200;BME280;57587;55.688;37.600;2024-01-06T04:41:02;99047.59;;;-13.66;51.16
70200;BME280;57587;55.688;37.600;2024-01-06T04:43:29;99048.22;;;-13.58;49.63
70200;BME280;57587;55.688;37.600;2024-01-06T04:45:56;99037.31;;;-13.66;49.30
70200;BME280;57587;55.688;37.600;2024-01-06T04:48:24;99045.72;;;-13.61;50.07
70200;BME280;57587;55.688;37.600;2024-01-06T04:50:51;99053.19;;;-13.53;49.68
70200;BME280;57587;55.688;37.600;2024-01-06T04:53:19;99051.44;;;-13.51;49.78
70200;BME280;57587;55.688;37.600;2024-01-06T04:55:46;99048.25;;;-13.59;49.33
70200;BME280;57587;55.688;37.600;2024-01-06T04:58:14;99053.38;;;-13.59;49.12
70200;BME280;57587;55.688;37.600;2024-01-06T05:00:41;99058.59;;;-13.61;49.02
70200;BME280;57587;55.688;37.600;2024-01-06T05:03:08;99050.59;;;-13.52;49.76
70200;BME280;57587;55.688;37.600;2024-01-06T05:05:35;99062.53;;;-13.79;49.28
70200;BME280;57587;55.688;37.600;2024-01-06T05:08:03;99057.66;;;-13.86;49.24
70200;BME280;57587;55.688;37.600;2024-01-06T05:10:30;99061.06;;;-13.87;49.34
70200;BME280;57587;55.688;37.600;2024-01-06T05:12:57;99071.06;;;-14.06;49.84
70200;BME280;57587;55.688;37.600;2024-01-06T05:15:24;99066.72;;;-14.04;49.36
70200;BME280;57587;55.688;37.600;2024-01-06T05:17:52;99059.53;;;-14.23;49.64
70200;BME280;57587;55.688;37.600;2024-01-06T05:20:19;99066.56;;;-14.29;49.83
70200;BME280;57587;55.688;37.600;2024-01-06T05:22:46;99071.88;;;-14.37;50.60
70200;BME280;57587;55.688;37.600;2024-01-06T05:25:13;99065.56;;;-14.25;50.12
70200;BME280;57587;55.688;37.600;2024-01-06T05:27:41;99070.59;;;-14.21;49.85
70200;BME280;57587;55.688;37.600;2024-01-06T05:30:08;99076.41;;;-14.14;50.18
70200;BME280;57587;55.688;37.600;2024-01-06T05:32:37;99069.28;;;-14.04;50.36
70200;BME280;57587;55.688;37.600;2024-01-06T05:35:04;99068.47;;;-14.06;49.63
70200;BME280;57587;55.688;37.600;2024-01-06T05:37:32;99068.31;;;-14.00;49.18
70200;BME280;57587;55.688;37.600;2024-01-06T05:39:59;99070.84;;;-13.99;49.26
70200;BME280;57587;55.688;37.600;2024-01-06T05:42:29;99065.78;;;-14.02;49.55
70200;BME280;57587;55.688;37.600;2024-01-06T05:44:57;99071.38;;;-14.19;49.36
70200;BME280;57587;55.688;37.600;2024-01-06T05:47:24;99064.53;;;-14.18;49.60
70200;BME280;57587;55.688;37.600;2024-01-06T05:49:51;99065.31;;;-14.14;50.26
70200;BME280;57587;55.688;37.600;2024-01-06T05:52:18;99056.94;;;-14.23;49.94
70200;BME280;57587;55.688;37.600;2024-01-06T05:54:45;99057.78;;;-14.22;49.77
70200;BME280;57587;55.688;37.600;2024-01-06T05:57:12;99063.94;;;-14.28;49.74
70200;BME280;57587;55.688;37.600;2024-01-06T05:59:39;99068.06;;;-14.22;50.24
70200;BME280;57587;55.688;37.600;2024-01-06T06:02:07;99078.56;;;-13.99;50.12
70200;BME280;57587;55.688;37.600;2024-01-06T06:04:34;99078.03;;;-13.80;49.42
70200;BME280;57587;55.688;37.600;2024-01-06T06:07:03;99083.88;;;-13.75;49.56
70200;BME280;57587;55.688;37.600;2024-01-06T06:09:30;99090.63;;;-13.71;48.91
70200;BME280;57587;55.688;37.600;2024-01-06T06:11:58;99098.25;;;-13.68;49.09
70200;BME280;57587;55.688;37.600;2024-01-06T06:14:25;99091.22;;;-13.63;49.22
70200;BME280;57587;55.688;37.600;2024-01-06T06:16:55;99101.16;;;-13.51;48.96
70200;BME280;57587;55.688;37.600;2024-01-06T06:19:23;99100.88;;;-13.41;49.14
70200;BME280;57587;55.688;37.600;2024-01-06T06:21:51;99099.69;;;-13.59;48.68
70200;BME280;57587;55.688;37.600;2024-01-06T06:24:19;99095.44;;;-13.59;48.92
70200;BME280;57587;55.688;37.600;2024-01-06T06:26:46;99093.47;;;-13.80;48.91
70200;BME280;57587;55.688;37.600;2024-01-06T06:29:13;99092.13;;;-13.64;49.81
70200;BME280;57587;55.688;37.600;2024-01-06T06:31:41;99100.22;;;-13.46;48.86
70200;BME280;57587;55.688;37.600;2024-01-06T06:34:10;99101.78;;;-13.42;48.53
70200;BME280;57587;55.688;37.600;2024-01-06T06:36:38;99103.72;;;-13.23;48.75
70200;BME280;57587;55.688;37.600;2024-01-06T06:39:05;99109.38;;;-13.11;49.02
70200;BME280;57587;55.688;37.600;2024-01-06T06:41:32;99109.03;;;-13.01;48.18
70200;BME280;57587;55.688;37.600;2024-01-06T06:44:00;99119.84;;;-12.89;47.59
70200;BME280;57587;55.688;37.600;2024-01-06T06:46:27;99113.91;;;-12.91;47.58
70200;BME280;57587;55.688;37.600;2024-01-06T06:48:54;99124.09;;;-12.88;47.48
70200;BME280;57587;55.688;37.600;2024-01-06T06:51:22;99117.44;;;-12.94;47.54
70200;BME280;57587;55.688;37.600;2024-01-06T06:53:52;99115.50;;;-12.87;47.58
70200;BME280;57587;55.688;37.600;2024-01-06T06:56:19;99114.91;;;-12.69;48.48
70200;BME280;57587;55.688;37.600;2024-01-06T06:58:46;99116.59;;;-12.68;47.33
70200;BME280;57587;55.688;37.600;2024-01-06T07:01:15;99120.81;;;-12.65;47.16
70200;BME280;57587;55.688;37.600;2024-01-06T07:03:42;99115.84;;;-12.71;48.37
70200;BME280;57587;55.688;37.600;2024-01-06T07:06:13;99110.31;;;-12.61;47.54
70200;BME280;57587;55.688;37.600;2024-01-06T07:08:41;99114.50;;;-12.57;46.92
70200;BME280;57587;55.688;37.600;2024-01-06T07:11:09;99101.81;;;-12.63;47.11
70200;BME280;57587;55.688;37.600;2024-01-06T07:13:38;99108.16;;;-12.73;47.62
70200;BME280;57587;55.688;37.600;2024-01-06T07:16:06;99115.03;;;-12.47;47.46
70200;BME280;57587;55.688;37.600;2024-01-06T07:18:45;99110.72;;;-12.21;47.49
70200;BME280;57587;55.688;37.600;2024-01-06T07:21:13;99118.41;;;-11.95;45.74
70200;BME280;57587;55.688;37.600;2024-01-06T07:23:41;99111.16;;;-11.85;45.90
70200;BME280;57587;55.688;37.600;2024-01-06T07:26:08;99112.44;;;-11.73;45.44
70200;BME280;57587;55.688;37.600;2024-01-06T07:28:35;99114.38;;;-11.80;45.03
70200;BME280;57587;55.688;37.600;2024-01-06T07:31:02;99107.78;;;-12.11;45.37
70200;BME280;57587;55.688;37.600;2024-01-06T07:33:32;99108.09;;;-12.20;45.71
70200;BME280;57587;55.688;37.600;2024-01-06T07:35:59;99131.03;;;-12.37;45.53
70200;BME280;57587;55.688;37.600;2024-01-06T07:38:28;99136.81;;;-12.31;46.37
70200;BME280;57587;55.688;37.600;2024-01-06T07:40:58;99132.41;;;-12.27;45.79
70200;BME280;57587;55.688;37.600;2024-01-06T07:43:25;99129.25;;;-12.35;46.93
70200;BME280;57587;55.688;37.600;2024-01-06T07:45:52;99123.69;;;-12.23;46.92
70200;BME280;57587;55.688;37.600;2024-01-06T07:48:19;99127.97;;;-12.23;46.86
70200;BME280;57587;55.688;37.600;2024-01-06T07:50:46;99132.19;;;-12.21;46.34
70200;BME280;57587;55.688;37.600;2024-01-06T07:53:13;99134.09;;;-12.01;46.98
70200;BME280;57587;55.688;37.600;2024-01-06T07:55:41;99122.91;;;-12.01;46.72
70200;BME280;57587;55.688;37.600;2024-01-06T07:58:08;99114.81;;;-12.16;45.93
70200;BME280;57587;55.688;37.600;2024-01-06T08:00:35;99122.41;;;-12.36;47.03
70200;BME280;57587;55.688;37.600;2024-01-06T08:03:03;99122.41;;;-12.36;46.58
70200;BME280;57587;55.688;37.600;2024-01-06T08:05:32;99123.00;;;-12.28;46.80
70200;BME280;57587;55.688;37.600;2024-01-06T08:08:00;99114.81;;;-12.16;47.17
70200;BME280;57587;55.688;37.600;2024-01-06T08:10:27;99109.56;;;-12.38;46.22
70200;BME280;57587;55.688;37.600;2024-01-06T08:12:54;99099.91;;;-12.58;47.46
70200;BME280;57587;55.688;37.600;2024-01-06T08:15:21;99094.53;;;-12.77;47.76
70200;BME280;57587;55.688;37.600;2024-01-06T08:17:49;99118.84;;;-12.85;48.05
70200;BME280;57587;55.688;37.600;2024-01-06T08:20:16;99105.75;;;-12.78;48.96
70200;BME280;57587;55.688;37.600;2024-01-06T08:22:43;99099.25;;;-12.63;48.32
70200;BME280;57587;55.688;37.600;2024-01-06T08:25:10;99107.03;;;-12.39;49.11
70200;BME280;57587;55.688;37.600;2024-01-06T08:27:37;99095.84;;;-12.38;48.49
70200;BME280;57587;55.688;37.600;2024-01-06T08:30:05;99087.25;;;-12.14;48.02
70200;BME280;57587;55.688;37.600;2024-01-06T08:32:33;99074.59;;;-11.96;47.51
70200;BME280;57587;55.688;37.600;2024-01-06T08:35:00;99082.91;;;-11.88;47.31
70200;BME280;57587;55.688;37.600;2024-01-06T08:37:30;99100.16;;;-11.90;46.97
70200;BME280;57587;55.688;37.600;2024-01-06T08:39:57;99108.09;;;-12.20;47.19
70200;BME280;57587;55.688;37.600;2024-01-06T08:42:24;99115.84;;;-12.20;47.50
70200;BME280;57587;55.688;37.600;2024-01-06T08:44:53;99106.16;;;-12.13;48.89
70200;BME280;57587;55.688;37.600;2024-01-06T08:47:20;99097.56;;;-12.14;48.46
70200;BME280;57587;55.688;37.600;2024-01-06T08:49:47;99100.69;;;-11.82;48.55
70200;BME280;57587;55.688;37.600;2024-01-06T08:52:14;99098.28;;;-11.63;47.98
70200;BME280;57587;55.688;37.600;2024-01-06T08:54:41;99094.09;;;-11.44;48.52
70200;BME280;57587;55.688;37.600;2024-01-06T08:57:09;99092.91;;;-11.35;47.34
70200;BME280;57587;55.688;37.600;2024-01-06T08:59:36;99103.00;;;-11.29;47.21
70200;BME280;57587;55.688;37.600;2024-01-06T09:02:03;99096.28;;;-11.55;47.38
70200;BME280;57587;55.688;37.600;2024-01-06T09:04:31;99094.75;;;-11.61;48.03
70200;BME280;57587;55.688;37.600;2024-01-06T09:06:58;99080.66;;;-11.52;47.89
70200;BME280;57587;55.688;37.600;2024-01-06T09:09:25;99082.50;;;-11.33;46.96
70200;BME280;57587;55.688;37.600;2024-01-06T09:11:52;99077.44;;;-11.35;47.81
70200;BME280;57587;55.688;37.600;2024-01-06T09:14:19;99077.91;;;-11.47;48.08
70200;BME280;57587;55.688;37.600;2024-01-06T09:16:47;99077.34;;;-11.55;47.49
70200;BME280;57587;55.688;37.600;2024-01-06T09:19:14;99073.88;;;-11.54;47.33
70200;BME280;57587;55.688;37.600;2024-01-06T09:21:41;99076.97;;;-11.46;47.26
70200;BME280;57587;55.688;37.600;2024-01-06T09:24:08;99074.78;;;-11.33;46.97
70200;BME280;57587;55.688;37.600;2024-01-06T09:26:35;99072.94;;;-11.30;47.63
70200;BME280;57587;55.688;37.600;2024-01-06T09:29:03;99072.50;;;-11.19;47.74
70200;BME280;57587;55.688;37.600;2024-01-06T09:31:30;99063.91;;;-11.20;47.48
70200;BME280;57587;55.688;37.600;2024-01-06T09:34:01;99063.00;;;-11.19;46.94
70200;BME280;57587;55.688;37.600;2024-01-06T09:36:31;99062.63;;;-11.53;47.81
70200;BME280;57587;55.688;37.600;2024-01-06T09:38:58;99060.00;;;-11.52;47.52
70200;BME280;57587;55.688;37.600;2024-01-06T09:41:25;99064.88;;;-11.44;48.55
70200;BME280;57587;55.688;37.600;2024-01-06T09:43:53;99063.09;;;-11.42;48.31
70200;BME280;57587;55.688;37.600;2024-01-06T09:46:25;99069.72;;;-11.58;47.45
70200;BME280;57587;55.688;37.600;2024-01-06T09:49:02;99069.31;;;-11.71;48.40
70200;BME280;57587;55.688;37.600;2024-01-06T09:51:30;99054.41;;;-11.63;49.27
70200;BME280;57587;55.688;37.600;2024-01-06T09:54:02;99059.59;;;-11.87;49.40
70200;BME280;57587;55.688;37.600;2024-01-06T09:56:30;99051.72;;;-11.84;48.20
70200;BME280;57587;55.688;37.600;2024-01-06T09:58:58;99056.97;;;-11.85;48.28
70200;BME280;57587;55.688;37.600;2024-01-06T10:01:26;99053.91;;;-11.95;48.61
70200;BME280;57587;55.688;37.600;2024-01-06T10:03:53;99073.69;;;-12.19;48.58
70200;BME280;57587;55.688;37.600;2024-01-06T10:06:21;99065.22;;;-12.22;48.89
70200;BME280;57587;55.688;37.600;2024-01-06T10:08:50;99065.69;;;-12.36;49.79
70200;BME280;57587;55.688;37.600;2024-01-06T10:11:22;99063.00;;;-12.33;50.37
70200;BME280;57587;55.688;37.600;2024-01-06T10:13:50;99067.16;;;-12.29;50.28
70200;BME280;57587;55.688;37.600;2024-01-06T10:16:18;99053.38;;;-12.28;49.88
70200;BME280;57587;55.688;37.600;2024-01-06T10:18:46;99056.06;;;-12.31;50.47
70200;BME280;57587;55.688;37.600;2024-01-06T10:21:20;99046.53;;;-12.29;49.75
70200;BME280;57587;55.688;37.600;2024-01-06T10:23:49;99046.25;;;-12.21;50.63
70200;BME280;57587;55.688;37.600;2024-01-06T10:26:18;99038.63;;;-12.24;50.46
70200;BME280;57587;55.688;37.600;2024-01-06T10:28:45;99036.84;;;-12.22;49.93
70200;BME280;57587;55.688;37.600;2024-01-06T10:31:12;99047.31;;;-12.27;50.05
70200;BME280;57587;55.688;37.600;2024-01-06T10:33:41;99034.59;;;-12.08;50.57
70200;BME280;57587;55.688;37.600;2024-01-06T10:36:08;99039.75;;;-12.08;49.62
70200;BME280;57587;55.688;37.600;2024-01-06T10:38:36;99033.50;;;-12.01;49.94
70200;BME280;57587;55.688;37.600;2024-01-06T10:41:04;99040.31;;;-12.23;50.20
70200;BME280;57587;55.688;37.600;2024-01-06T10:43:36;99026.94;;;-12.10;51.07
70200;BME280;57587;55.688;37.600;2024-01-06T10:46:05;99022.03;;;-12.17;51.32
70200;BME280;57587;55.688;37.600;2024-01-06T10:48:35;99029.47;;;-12.33;50.88
70200;BME280;57587;55.688;37.600;2024-01-06T10:51:05;99028.50;;;-12.29;51.67
70200;BME280;57587;55.688;37.600;2024-01-06T10:53:35;99021.38;;;-12.22;51.26
70200;BME280;57587;55.688;37.600;2024-01-06T10:56:07;99021.81;;;-12.11;51.60
70200;BME280;57587;55.688;37.600;2024-01-06T10:58:41;99024.66;;;-11.95;51.09
70200;BME280;57587;55.688;37.600;2024-01-06T11:01:12;99034.25;;;-11.77;51.58
70200;BME280;57587;55.688;37.600;2024-01-06T11:03:45;99027.94;;;-11.46;50.38
70200;BME280;57587;55.688;37.600;2024-01-06T11:06:13;99020.25;;;-11.26;49.19
70200;BME280;57587;55.688;37.600;2024-01-06T11:08:51;99016.75;;;-11.25;49.66
70200;BME280;57587;55.688;37.600;2024-01-06T11:11:20;99011.34;;;-11.19;49.10
70200;BME280;57587;55.688;37.600;2024-01-06T11:13:47;99014.47;;;-11.10;49.78
70200;BME280;57587;55.688;37.600;2024-01-06T11:16:34;99017.91;;;-11.10;49.58
70200;BME280;57587;55.688;37.600;2024-01-06T11:19:02;99011.63;;;-11.04;49.49
70200;BME280;57587;55.688;37.600;2024-01-06T11:21:33;99018.34;;;-11.00;49.96
70200;BME280;57587;55.688;37.600;2024-01-06T11:24:40;99012.69;;;-11.08;48.46
70200;BME280;57587;55.688;37.600;2024-01-06T11:27:00;99013.22;;;-11.22;49.04
70200;BME280;57587;55.688;37.600;2024-01-06T11:29:30;99017.66;;;-11.26;50.01
70200;BME280;57587;55.688;37.600;2024-01-06T11:32:19;99017.34;;;-11.18;49.71
70200;BME280;57587;55.688;37.600;2024-01-06T11:34:48;99014.66;;;-11.15;49.17
70200;BME280;57587;55.688;37.600;2024-01-06T11:37:35;99019.97;;;-10.98;49.50
70200;BME280;57587;55.688;37.600;2024-01-06T11:40:09;99026.19;;;-11.02;48.18
70200;BME280;57587;55.688;37.600;2024-01-06T11:42:45;99019.63;;;-11.10;48.66
70200;BME280;57587;55.688;37.600;2024-01-06T11:45:13;99028.03;;;-11.27;49.37
70200;BME280;57587;55.688;37.600;2024-01-06T11:47:47;99021.56;;;-11.16;50.42
70200;BME280;57587;55.688;37.600;2024-01-06T11:50:17;99029.72;;;-11.04;49.27
70200;BME280;57587;55.688;37.600;2024-01-06T11:52:45;99036.81;;;-11.09;49.40
70200;BME280;57587;55.688;37.600;2024-01-06T11:55:12;99039.94;;;-11.01;49.29
70200;BME280;57587;55.688;37.600;2024-01-06T11:57:40;99039.88;;;-11.22;49.29
70200;BME280;57587;55.688;37.600;2024-01-06T12:00:07;99041.03;;;-11.29;49.74
70200;BME280;57587;55.688;37.600;2024-01-06T12:02:34;99047.75;;;-11.25;49.05
70200;BME280;57587;55.688;37.600;2024-01-06T12:05:02;99050.34;;;-11.25;50.45
70200;BME280;57587;55.688;37.600;2024-01-06T12:07:29;99045.41;;;-11.31;49.75
70200;BME280;57587;55.688;37.600;2024-01-06T12:10:03;99045.59;;;-11.35;49.99
70200;BME280;57587;55.688;37.600;2024-01-06T12:12:31;99047.38;;;-11.59;50.16
70200;BME280;57587;55.688;37.600;2024-01-06T12:14:59;99051.88;;;-11.65;50.53
70200;BME280;57587;55.688;37.600;2024-01-06T12:17:30;99057.25;;;-11.47;51.43
70200;BME280;57587;55.688;37.600;2024-01-06T12:19:58;99048.34;;;-11.40;51.01
70200;BME280;57587;55.688;37.600;2024-01-06T12:22:26;99045.72;;;-11.61;50.90
70200;BME280;57587;55.688;37.600;2024-01-06T12:24:53;99045.88;;;-11.65;50.20
70200;BME280;57587;55.688;37.600;2024-01-06T12:27:21;99041.50;;;-11.85;50.93
70200;BME280;57587;55.688;37.600;2024-01-06T12:29:48;99048.16;;;-12.03;51.27
70200;BME280;57587;55.688;37.600;2024-01-06T12:32:17;99042.78;;;-11.97;51.25
70200;BME280;57587;55.688;37.600;2024-01-06T12:34:45;99047.88;;;-11.95;51.56
70200;BME280;57587;55.688;37.600;2024-01-06T12:37:13;99052.28;;;-11.97;51.50
70200;BME280;57587;55.688;37.600;2024-01-06T12:39:40;99045.28;;;-11.95;52.11
70200;BME280;57587;55.688;37.600;2024-01-06T12:42:09;99048.78;;;-11.96;52.07
70200;BME280;57587;55.688;37.600;2024-01-06T12:44:36;99066.53;;;-12.11;51.84